Heusden, Belgium
Current Conditions -  °F | °C
As of 7:25 PM on Thursday 30 Oct 2014 (Local Time) from EBDT Reporting Station
Broken Clouds Broken Clouds  
Wind Chill: 59°   Ceiling: 12000
Heat Index: 59°   Visibility: 6mi
Dew Point: 55°   Wind: 7mph
Humidity: 88%   Direction: 180°S
Pressure: 30.18"   Gusts: NA
Location:  51.04°N, 5.28°E
Report Text: EBDT 301825Z AUTO 18006KT 9999 BKN120/// 15/13 Q1022 BLU
Loading
Personal Weather Stations






























Interactive Weather Map
Tropical Storm Tracking
New forecast layout! Learn more

10-Day Weather Forecast

Advertisements
Track Severe Weather on mobile